Weather at Dry Lake Landing Strip

Public forecast

Using degrees Fahrenheit for public forecast. Weather courtesy of forecast.io.

Closest aviation weather report (METAR) to Dry Lake Landing Strip

Closest report is Nellis Air Force Base, 15.4 nm (28.6 km) SSW. Retrieved 2021/06/22 14:58 UTC (59 minutes ago):

KLSV 221458Z AUTO 18016KT 10SM FEW190 33/M00 A2984 RMK AO2 SLP075 T03281004

Closest aviation forecast (TAF) to Dry Lake Landing Strip

Closest forecast is Nellis Air Force Base, 15.4 nm (28.6 km) SSW. Retrieved 2021/06/22 15:09 UTC (48 minutes ago):

TAF KLSV 221500Z 2215/2321 19012G18KT 9999 FEW210 QNH2979INS BECMG 2217/2218 19015G25KT 9999 FEW210 520009 QNH2976INS BECMG 2303/2304 19009KT 9999 FEW210 QNH2979INS BECMG 2308/2309 32009KT 9999 FEW210 QNH2978INS TX42/2223Z TN29/2313Z